sensor_id;sensor_type;location;lat;lon;timestamp;P1;durP1;ratioP1;P2;durP2;ratioP2
25327;SDS011;13279;51.300;12.394;2023-10-09T00:00:27;8.83;;;3.57;;
25327;SDS011;13279;51.300;12.394;2023-10-09T00:03:18;6.27;;;3.03;;
25327;SDS011;13279;51.300;12.394;2023-10-09T00:05:48;12.03;;;4.00;;
25327;SDS011;13279;51.300;12.394;2023-10-09T00:08:18;10.60;;;4.27;;
25327;SDS011;13279;51.300;12.394;2023-10-09T00:10:47;5.63;;;3.57;;
25327;SDS011;13279;51.300;12.394;2023-10-09T00:13:18;7.87;;;3.13;;
25327;SDS011;13279;51.300;12.394;2023-10-09T00:15:52;8.60;;;3.70;;
25327;SDS011;13279;51.300;12.394;2023-10-09T00:18:26;12.60;;;3.80;;
25327;SDS011;13279;51.300;12.394;2023-10-09T00:20:55;8.27;;;3.83;;
25327;SDS011;13279;51.300;12.394;2023-10-09T00:23:26;7.53;;;3.87;;
25327;SDS011;13279;51.300;12.394;2023-10-09T00:25:57;7.10;;;3.80;;
25327;SDS011;13279;51.300;12.394;2023-10-09T00:28:41;8.23;;;4.30;;
25327;SDS011;13279;51.300;12.394;2023-10-09T00:31:12;5.70;;;3.67;;
25327;SDS011;13279;51.300;12.394;2023-10-09T00:33:43;9.20;;;3.80;;
25327;SDS011;13279;51.300;12.394;2023-10-09T00:36:10;6.43;;;4.17;;
25327;SDS011;13279;51.300;12.394;2023-10-09T00:38:43;10.60;;;4.00;;
25327;SDS011;13279;51.300;12.394;2023-10-09T00:41:14;7.27;;;3.80;;
25327;SDS011;13279;51.300;12.394;2023-10-09T00:43:48;6.47;;;4.00;;
25327;SDS011;13279;51.300;12.394;2023-10-09T00:46:16;8.97;;;4.73;;
25327;SDS011;13279;51.300;12.394;2023-10-09T00:48:53;10.07;;;3.73;;
25327;SDS011;13279;51.300;12.394;2023-10-09T00:51:23;7.40;;;3.83;;
25327;SDS011;13279;51.300;12.394;2023-10-09T00:53:54;6.33;;;3.97;;
25327;SDS011;13279;51.300;12.394;2023-10-09T00:56:25;7.03;;;3.60;;
25327;SDS011;13279;51.300;12.394;2023-10-09T00:59:04;7.13;;;3.90;;
25327;SDS011;13279;51.300;12.394;2023-10-09T01:01:35;6.17;;;3.90;;
25327;SDS011;13279;51.300;12.394;2023-10-09T01:04:07;6.17;;;3.33;;
25327;SDS011;13279;51.300;12.394;2023-10-09T01:06:37;8.50;;;3.77;;
25327;SDS011;13279;51.300;12.394;2023-10-09T01:09:11;6.23;;;4.07;;
25327;SDS011;13279;51.300;12.394;2023-10-09T01:11:39;10.67;;;3.90;;
25327;SDS011;13279;51.300;12.394;2023-10-09T01:14:29;5.87;;;3.80;;
25327;SDS011;13279;51.300;12.394;2023-10-09T01:17:02;7.00;;;3.47;;
25327;SDS011;13279;51.300;12.394;2023-10-09T01:19:35;6.17;;;3.70;;
25327;SDS011;13279;51.300;12.394;2023-10-09T01:22:03;6.93;;;3.27;;
25327;SDS011;13279;51.300;12.394;2023-10-09T01:24:39;6.37;;;3.70;;
25327;SDS011;13279;51.300;12.394;2023-10-09T01:27:07;8.37;;;4.20;;
25327;SDS011;13279;51.300;12.394;2023-10-09T01:29:40;8.13;;;3.43;;
25327;SDS011;13279;51.300;12.394;2023-10-09T01:32:09;5.13;;;3.50;;
25327;SDS011;13279;51.300;12.394;2023-10-09T01:34:42;5.43;;;3.63;;
25327;SDS011;13279;51.300;12.394;2023-10-09T01:37:10;4.70;;;3.50;;
25327;SDS011;13279;51.300;12.394;2023-10-09T01:39:45;5.70;;;3.23;;
25327;SDS011;13279;51.300;12.394;2023-10-09T01:42:14;5.33;;;3.40;;
25327;SDS011;13279;51.300;12.394;2023-10-09T01:44:51;4.73;;;3.57;;
25327;SDS011;13279;51.300;12.394;2023-10-09T01:47:19;5.97;;;3.87;;
25327;SDS011;13279;51.300;12.394;2023-10-09T01:49:47;4.83;;;3.13;;
25327;SDS011;13279;51.300;12.394;2023-10-09T01:52:18;4.93;;;3.03;;
25327;SDS011;13279;51.300;12.394;2023-10-09T01:54:50;4.93;;;3.30;;
25327;SDS011;13279;51.300;12.394;2023-10-09T01:57:19;5.97;;;3.23;;
25327;SDS011;13279;51.300;12.394;2023-10-09T01:59:49;4.47;;;3.77;;
25327;SDS011;13279;51.300;12.394;2023-10-09T02:02:19;5.67;;;3.17;;
25327;SDS011;13279;51.300;12.394;2023-10-09T02:04:57;5.73;;;3.30;;
25327;SDS011;13279;51.300;12.394;2023-10-09T02:07:35;4.30;;;3.20;;
25327;SDS011;13279;51.300;12.394;2023-10-09T02:10:12;8.10;;;3.70;;
25327;SDS011;13279;51.300;12.394;2023-10-09T02:12:51;5.60;;;3.20;;
25327;SDS011;13279;51.300;12.394;2023-10-09T02:15:23;6.03;;;3.70;;
25327;SDS011;13279;51.300;12.394;2023-10-09T02:18:05;7.47;;;4.20;;
25327;SDS011;13279;51.300;12.394;2023-10-09T02:20:44;5.07;;;3.63;;
25327;SDS011;13279;51.300;12.394;2023-10-09T02:23:13;5.67;;;3.60;;
25327;SDS011;13279;51.300;12.394;2023-10-09T02:25:44;3.50;;;3.20;;
25327;SDS011;13279;51.300;12.394;2023-10-09T02:28:12;5.27;;;3.83;;
25327;SDS011;13279;51.300;12.394;2023-10-09T02:30:44;5.20;;;3.50;;
25327;SDS011;13279;51.300;12.394;2023-10-09T02:33:14;10.80;;;3.87;;
25327;SDS011;13279;51.300;12.394;2023-10-09T02:35:46;6.13;;;3.87;;
25327;SDS011;13279;51.300;12.394;2023-10-09T02:38:17;4.53;;;3.83;;
25327;SDS011;13279;51.300;12.394;2023-10-09T02:40:50;4.20;;;2.93;;
25327;SDS011;13279;51.300;12.394;2023-10-09T02:43:46;5.70;;;3.37;;
25327;SDS011;13279;51.300;12.394;2023-10-09T02:46:16;4.60;;;3.13;;
25327;SDS011;13279;51.300;12.394;2023-10-09T02:48:46;6.37;;;3.70;;
25327;SDS011;13279;51.300;12.394;2023-10-09T02:51:17;5.33;;;3.23;;
25327;SDS011;13279;51.300;12.394;2023-10-09T02:53:58;4.23;;;3.77;;
25327;SDS011;13279;51.300;12.394;2023-10-09T02:56:36;3.93;;;3.27;;
25327;SDS011;13279;51.300;12.394;2023-10-09T02:59:08;4.13;;;3.07;;
25327;SDS011;13279;51.300;12.394;2023-10-09T03:01:37;5.20;;;3.60;;
25327;SDS011;13279;51.300;12.394;2023-10-09T03:04:06;5.67;;;4.07;;
25327;SDS011;13279;51.300;12.394;2023-10-09T03:06:36;6.20;;;3.63;;
25327;SDS011;13279;51.300;12.394;2023-10-09T03:09:09;6.43;;;3.60;;
25327;SDS011;13279;51.300;12.394;2023-10-09T03:11:45;5.13;;;3.60;;
25327;SDS011;13279;51.300;12.394;2023-10-09T03:14:18;5.73;;;3.30;;
25327;SDS011;13279;51.300;12.394;2023-10-09T03:16:46;9.37;;;3.97;;
25327;SDS011;13279;51.300;12.394;2023-10-09T03:19:15;7.13;;;3.90;;
25327;SDS011;13279;51.300;12.394;2023-10-09T03:21:42;6.43;;;3.40;;
25327;SDS011;13279;51.300;12.394;2023-10-09T03:24:12;5.63;;;4.03;;
25327;SDS011;13279;51.300;12.394;2023-10-09T03:26:41;6.50;;;4.17;;
25327;SDS011;13279;51.300;12.394;2023-10-09T03:29:12;4.87;;;3.67;;
25327;SDS011;13279;51.300;12.394;2023-10-09T03:31:40;6.47;;;4.33;;
25327;SDS011;13279;51.300;12.394;2023-10-09T03:34:08;4.40;;;3.40;;
25327;SDS011;13279;51.300;12.394;2023-10-09T03:36:36;7.07;;;4.10;;
25327;SDS011;13279;51.300;12.394;2023-10-09T03:39:04;6.87;;;4.30;;
25327;SDS011;13279;51.300;12.394;2023-10-09T03:41:43;4.30;;;3.53;;
25327;SDS011;13279;51.300;12.394;2023-10-09T03:44:14;6.47;;;4.03;;
25327;SDS011;13279;51.300;12.394;2023-10-09T03:46:44;6.60;;;3.80;;
25327;SDS011;13279;51.300;12.394;2023-10-09T03:49:12;6.70;;;4.07;;
25327;SDS011;13279;51.300;12.394;2023-10-09T03:51:45;7.10;;;3.77;;
25327;SDS011;13279;51.300;12.394;2023-10-09T03:54:13;4.47;;;3.77;;
25327;SDS011;13279;51.300;12.394;2023-10-09T03:56:41;4.63;;;3.30;;
25327;SDS011;13279;51.300;12.394;2023-10-09T03:59:08;4.83;;;4.20;;
25327;SDS011;13279;51.300;12.394;2023-10-09T04:01:38;7.60;;;3.93;;
25327;SDS011;13279;51.300;12.394;2023-10-09T04:04:07;4.63;;;3.80;;
25327;SDS011;13279;51.300;12.394;2023-10-09T04:06:36;7.07;;;3.73;;
25327;SDS011;13279;51.300;12.394;2023-10-09T04:09:04;4.50;;;3.63;;
25327;SDS011;13279;51.300;12.394;2023-10-09T04:11:39;5.00;;;3.60;;
25327;SDS011;13279;51.300;12.394;2023-10-09T04:14:08;4.07;;;3.63;;
25327;SDS011;13279;51.300;12.394;2023-10-09T04:16:39;7.67;;;3.90;;
25327;SDS011;13279;51.300;12.394;2023-10-09T04:19:17;7.37;;;4.10;;
25327;SDS011;13279;51.300;12.394;2023-10-09T04:21:48;6.80;;;3.93;;
25327;SDS011;13279;51.300;12.394;2023-10-09T04:24:14;5.43;;;3.70;;
25327;SDS011;13279;51.300;12.394;2023-10-09T04:26:51;5.93;;;3.93;;
25327;SDS011;13279;51.300;12.394;2023-10-09T04:29:24;7.03;;;3.50;;
25327;SDS011;13279;51.300;12.394;2023-10-09T04:32:04;6.23;;;4.03;;
25327;SDS011;13279;51.300;12.394;2023-10-09T04:34:41;8.17;;;4.97;;
25327;SDS011;13279;51.300;12.394;2023-10-09T04:37:14;9.67;;;5.03;;
25327;SDS011;13279;51.300;12.394;2023-10-09T04:39:49;7.97;;;4.30;;
25327;SDS011;13279;51.300;12.394;2023-10-09T04:42:27;6.17;;;4.50;;
25327;SDS011;13279;51.300;12.394;2023-10-09T04:45:04;8.63;;;5.60;;
25327;SDS011;13279;51.300;12.394;2023-10-09T04:47:52;6.70;;;4.43;;
25327;SDS011;13279;51.300;12.394;2023-10-09T04:50:32;9.13;;;4.60;;
25327;SDS011;13279;51.300;12.394;2023-10-09T04:53:29;6.60;;;4.53;;
25327;SDS011;13279;51.300;12.394;2023-10-09T04:56:05;6.97;;;5.13;;
25327;SDS011;13279;51.300;12.394;2023-10-09T04:58:41;7.87;;;4.93;;
25327;SDS011;13279;51.300;12.394;2023-10-09T05:01:09;6.13;;;4.63;;
25327;SDS011;13279;51.300;12.394;2023-10-09T05:03:43;10.70;;;4.57;;
25327;SDS011;13279;51.300;12.394;2023-10-09T05:06:12;10.20;;;4.97;;
25327;SDS011;13279;51.300;12.394;2023-10-09T05:09:12;11.10;;;5.03;;
25327;SDS011;13279;51.300;12.394;2023-10-09T05:11:40;8.67;;;4.63;;
25327;SDS011;13279;51.300;12.394;2023-10-09T05:14:19;7.47;;;5.00;;
25327;SDS011;13279;51.300;12.394;2023-10-09T05:17:04;7.53;;;5.43;;
25327;SDS011;13279;51.300;12.394;2023-10-09T05:19:36;12.13;;;4.57;;
25327;SDS011;13279;51.300;12.394;2023-10-09T05:22:20;10.27;;;5.40;;
25327;SDS011;13279;51.300;12.394;2023-10-09T05:25:02;7.27;;;5.33;;
25327;SDS011;13279;51.300;12.394;2023-10-09T05:27:42;9.80;;;5.30;;
25327;SDS011;13279;51.300;12.394;2023-10-09T05:30:16;11.90;;;5.73;;
25327;SDS011;13279;51.300;12.394;2023-10-09T05:32:53;16.53;;;6.20;;
25327;SDS011;13279;51.300;12.394;2023-10-09T05:35:55;11.97;;;6.43;;
25327;SDS011;13279;51.300;12.394;2023-10-09T05:38:37;9.20;;;5.90;;
25327;SDS011;13279;51.300;12.394;2023-10-09T05:41:12;13.07;;;7.10;;
25327;SDS011;13279;51.300;12.394;2023-10-09T05:43:57;14.83;;;6.13;;
25327;SDS011;13279;51.300;12.394;2023-10-09T05:46:42;12.50;;;6.63;;
25327;SDS011;13279;51.300;12.394;2023-10-09T05:49:35;19.27;;;6.80;;
25327;SDS011;13279;51.300;12.394;2023-10-09T05:52:13;13.97;;;5.97;;
25327;SDS011;13279;51.300;12.394;2023-10-09T05:55:19;14.53;;;6.43;;
25327;SDS011;13279;51.300;12.394;2023-10-09T05:58:07;10.80;;;6.83;;
25327;SDS011;13279;51.300;12.394;2023-10-09T06:00:51;13.50;;;6.50;;
25327;SDS011;13279;51.300;12.394;2023-10-09T06:03:36;18.80;;;6.43;;
25327;SDS011;13279;51.300;12.394;2023-10-09T06:06:18;10.97;;;6.43;;
25327;SDS011;13279;51.300;12.394;2023-10-09T06:09:02;20.93;;;6.77;;
25327;SDS011;13279;51.300;12.394;2023-10-09T06:11:48;10.27;;;6.90;;
25327;SDS011;13279;51.300;12.394;2023-10-09T06:14:22;12.57;;;6.47;;
25327;SDS011;13279;51.300;12.394;2023-10-09T06:16:51;17.97;;;7.10;;
25327;SDS011;13279;51.300;12.394;2023-10-09T06:19:48;9.43;;;6.17;;
25327;SDS011;13279;51.300;12.394;2023-10-09T06:22:24;13.60;;;7.30;;
25327;SDS011;13279;51.300;12.394;2023-10-09T06:25:11;14.87;;;7.13;;
25327;SDS011;13279;51.300;12.394;2023-10-09T06:27:44;16.53;;;7.17;;
25327;SDS011;13279;51.300;12.394;2023-10-09T06:30:25;13.53;;;7.30;;
25327;SDS011;13279;51.300;12.394;2023-10-09T06:33:09;21.63;;;8.27;;
25327;SDS011;13279;51.300;12.394;2023-10-09T06:35:55;15.80;;;7.53;;
25327;SDS011;13279;51.300;12.394;2023-10-09T06:38:21;18.27;;;8.30;;
25327;SDS011;13279;51.300;12.394;2023-10-09T06:40:50;18.47;;;8.40;;
25327;SDS011;13279;51.300;12.394;2023-10-09T06:43:35;18.73;;;8.53;;
25327;SDS011;13279;51.300;12.394;2023-10-09T06:46:16;18.63;;;8.47;;
25327;SDS011;13279;51.300;12.394;2023-10-09T06:49:01;21.27;;;8.20;;
25327;SDS011;13279;51.300;12.394;2023-10-09T06:51:51;21.20;;;8.90;;
25327;SDS011;13279;51.300;12.394;2023-10-09T06:54:21;19.20;;;8.40;;
25327;SDS011;13279;51.300;12.394;2023-10-09T06:56:52;16.00;;;9.37;;
25327;SDS011;13279;51.300;12.394;2023-10-09T06:59:38;23.43;;;10.37;;
25327;SDS011;13279;51.300;12.394;2023-10-09T07:02:28;20.93;;;10.00;;
25327;SDS011;13279;51.300;12.394;2023-10-09T07:04:56;27.57;;;9.77;;
25327;SDS011;13279;51.300;12.394;2023-10-09T07:07:36;26.93;;;9.57;;
25327;SDS011;13279;51.300;12.394;2023-10-09T07:10:15;24.30;;;9.63;;
25327;SDS011;13279;51.300;12.394;2023-10-09T07:13:05;21.97;;;9.97;;
25327;SDS011;13279;51.300;12.394;2023-10-09T07:15:33;26.43;;;9.30;;
25327;SDS011;13279;51.300;12.394;2023-10-09T07:18:18;22.43;;;10.50;;
25327;SDS011;13279;51.300;12.394;2023-10-09T07:20:50;20.20;;;11.27;;
25327;SDS011;13279;51.300;12.394;2023-10-09T07:23:27;28.90;;;10.70;;
25327;SDS011;13279;51.300;12.394;2023-10-09T07:26:05;22.27;;;11.17;;
25327;SDS011;13279;51.300;12.394;2023-10-09T07:28:46;21.50;;;10.63;;
25327;SDS011;13279;51.300;12.394;2023-10-09T07:31:26;24.23;;;12.00;;
25327;SDS011;13279;51.300;12.394;2023-10-09T07:34:05;22.27;;;11.80;;
25327;SDS011;13279;51.300;12.394;2023-10-09T07:36:55;26.33;;;10.53;;
25327;SDS011;13279;51.300;12.394;2023-10-09T07:39:22;27.27;;;11.90;;
25327;SDS011;13279;51.300;12.394;2023-10-09T07:42:00;28.83;;;13.23;;
25327;SDS011;13279;51.300;12.394;2023-10-09T07:44:46;27.13;;;12.23;;
25327;SDS011;13279;51.300;12.394;2023-10-09T07:47:20;26.33;;;13.37;;
25327;SDS011;13279;51.300;12.394;2023-10-09T07:50:08;28.23;;;13.60;;
25327;SDS011;13279;51.300;12.394;2023-10-09T07:52:36;26.23;;;12.77;;
25327;SDS011;13279;51.300;12.394;2023-10-09T07:55:09;28.37;;;11.37;;
25327;SDS011;13279;51.300;12.394;2023-10-09T07:57:52;25.17;;;12.70;;
25327;SDS011;13279;51.300;12.394;2023-10-09T08:00:21;30.17;;;12.73;;
25327;SDS011;13279;51.300;12.394;2023-10-09T08:03:24;35.60;;;13.47;;
25327;SDS011;13279;51.300;12.394;2023-10-09T08:05:55;27.00;;;12.67;;
25327;SDS011;13279;51.300;12.394;2023-10-09T08:08:32;26.83;;;12.83;;
25327;SDS011;13279;51.300;12.394;2023-10-09T08:11:21;31.10;;;13.00;;
25327;SDS011;13279;51.300;12.394;2023-10-09T08:14:02;36.10;;;14.70;;
25327;SDS011;13279;51.300;12.394;2023-10-09T08:16:50;29.47;;;13.63;;
25327;SDS011;13279;51.300;12.394;2023-10-09T08:19:31;31.87;;;13.27;;
25327;SDS011;13279;51.300;12.394;2023-10-09T08:21:59;31.43;;;14.13;;
25327;SDS011;13279;51.300;12.394;2023-10-09T08:24:53;37.00;;;13.67;;
25327;SDS011;13279;51.300;12.394;2023-10-09T11:26:40;22.30;;;10.37;;
25327;SDS011;13279;51.300;12.394;2023-10-09T11:29:08;21.77;;;10.27;;
25327;SDS011;13279;51.300;12.394;2023-10-09T11:32:01;21.57;;;10.60;;
25327;SDS011;13279;51.300;12.394;2023-10-09T11:34:31;18.87;;;9.67;;
25327;SDS011;13279;51.300;12.394;2023-10-09T11:37:01;21.60;;;9.80;;
25327;SDS011;13279;51.300;12.394;2023-10-09T11:39:30;21.87;;;11.63;;
25327;SDS011;13279;51.300;12.394;2023-10-09T11:42:07;30.70;;;12.07;;
25327;SDS011;13279;51.300;12.394;2023-10-09T11:44:38;23.13;;;10.87;;
25327;SDS011;13279;51.300;12.394;2023-10-09T11:47:06;23.07;;;11.53;;
25327;SDS011;13279;51.300;12.394;2023-10-09T11:49:58;25.77;;;11.97;;
25327;SDS011;13279;51.300;12.394;2023-10-09T11:52:55;27.27;;;11.87;;
25327;SDS011;13279;51.300;12.394;2023-10-09T11:55:35;30.00;;;12.40;;
25327;SDS011;13279;51.300;12.394;2023-10-09T11:58:05;23.93;;;10.93;;
25327;SDS011;13279;51.300;12.394;2023-10-09T12:00:34;25.20;;;12.00;;
25327;SDS011;13279;51.300;12.394;2023-10-09T12:03:11;21.70;;;11.93;;
25327;SDS011;13279;51.300;12.394;2023-10-09T12:05:40;26.67;;;13.63;;
25327;SDS011;13279;51.300;12.394;2023-10-09T12:08:10;36.00;;;13.53;;
25327;SDS011;13279;51.300;12.394;2023-10-09T12:10:40;29.73;;;12.60;;
25327;SDS011;13279;51.300;12.394;2023-10-09T12:13:10;28.27;;;13.50;;
25327;SDS011;13279;51.300;12.394;2023-10-09T12:15:37;32.60;;;12.60;;
25327;SDS011;13279;51.300;12.394;2023-10-09T12:18:05;33.13;;;12.20;;
25327;SDS011;13279;51.300;12.394;2023-10-09T12:20:40;28.17;;;12.87;;
25327;SDS011;13279;51.300;12.394;2023-10-09T12:23:13;26.97;;;12.53;;
25327;SDS011;13279;51.300;12.394;2023-10-09T12:25:40;31.50;;;12.77;;
25327;SDS011;13279;51.300;12.394;2023-10-09T12:28:11;27.70;;;13.23;;
25327;SDS011;13279;51.300;12.394;2023-10-09T12:30:39;26.00;;;13.53;;
25327;SDS011;13279;51.300;12.394;2023-10-09T12:33:07;28.80;;;14.87;;
25327;SDS011;13279;51.300;12.394;2023-10-09T12:35:37;29.63;;;13.57;;
25327;SDS011;13279;51.300;12.394;2023-10-09T12:38:05;31.97;;;14.67;;
25327;SDS011;13279;51.300;12.394;2023-10-09T12:40:38;30.20;;;14.63;;
25327;SDS011;13279;51.300;12.394;2023-10-09T12:43:07;34.93;;;14.97;;
25327;SDS011;13279;51.300;12.394;2023-10-09T12:45:42;37.03;;;14.20;;
25327;SDS011;13279;51.300;12.394;2023-10-09T12:48:11;36.90;;;13.87;;
25327;SDS011;13279;51.300;12.394;2023-10-09T12:50:40;33.93;;;14.07;;
25327;SDS011;13279;51.300;12.394;2023-10-09T12:53:11;34.30;;;15.07;;
25327;SDS011;13279;51.300;12.394;2023-10-09T12:55:43;33.40;;;14.53;;
25327;SDS011;13279;51.300;12.394;2023-10-09T12:58:11;37.93;;;15.10;;
25327;SDS011;13279;51.300;12.394;2023-10-09T13:00:42;38.07;;;15.30;;
25327;SDS011;13279;51.300;12.394;2023-10-09T13:03:14;36.27;;;15.67;;
25327;SDS011;13279;51.300;12.394;2023-10-09T13:05:45;42.43;;;15.90;;
25327;SDS011;13279;51.300;12.394;2023-10-09T13:08:21;35.23;;;15.57;;
25327;SDS011;13279;51.300;12.394;2023-10-09T13:10:50;36.40;;;15.87;;
25327;SDS011;13279;51.300;12.394;2023-10-09T13:13:25;38.33;;;15.93;;
25327;SDS011;13279;51.300;12.394;2023-10-09T13:16:07;37.63;;;15.93;;
25327;SDS011;13279;51.300;12.394;2023-10-09T13:18:38;40.67;;;17.03;;
25327;SDS011;13279;51.300;12.394;2023-10-09T13:21:07;37.53;;;17.37;;
25327;SDS011;13279;51.300;12.394;2023-10-09T13:23:34;36.17;;;15.93;;
25327;SDS011;13279;51.300;12.394;2023-10-09T13:26:05;34.07;;;14.53;;
25327;SDS011;13279;51.300;12.394;2023-10-09T13:28:45;39.37;;;15.37;;
25327;SDS011;13279;51.300;12.394;2023-10-09T13:31:15;31.20;;;14.47;;
25327;SDS011;13279;51.300;12.394;2023-10-09T13:33:43;37.37;;;16.20;;
25327;SDS011;13279;51.300;12.394;2023-10-09T13:36:12;39.47;;;16.07;;
25327;SDS011;13279;51.300;12.394;2023-10-09T13:38:45;41.30;;;18.13;;
25327;SDS011;13279;51.300;12.394;2023-10-09T13:41:13;53.10;;;20.07;;
25327;SDS011;13279;51.300;12.394;2023-10-09T13:43:43;70.37;;;29.47;;
25327;SDS011;13279;51.300;12.394;2023-10-09T13:46:11;56.33;;;21.50;;
25327;SDS011;13279;51.300;12.394;2023-10-09T13:48:44;51.53;;;19.17;;
25327;SDS011;13279;51.300;12.394;2023-10-09T13:51:15;53.20;;;20.37;;
25327;SDS011;13279;51.300;12.394;2023-10-09T13:53:44;47.23;;;19.70;;
25327;SDS011;13279;51.300;12.394;2023-10-09T13:56:13;58.83;;;21.33;;
25327;SDS011;13279;51.300;12.394;2023-10-09T13:58:46;54.60;;;20.40;;
25327;SDS011;13279;51.300;12.394;2023-10-09T14:01:16;52.97;;;20.67;;
25327;SDS011;13279;51.300;12.394;2023-10-09T14:03:59;51.73;;;20.83;;
25327;SDS011;13279;51.300;12.394;2023-10-09T14:06:27;49.97;;;19.97;;
25327;SDS011;13279;51.300;12.394;2023-10-09T14:08:58;59.90;;;20.20;;
25327;SDS011;13279;51.300;12.394;2023-10-09T14:11:29;45.03;;;19.07;;
25327;SDS011;13279;51.300;12.394;2023-10-09T14:13:57;47.37;;;20.10;;
25327;SDS011;13279;51.300;12.394;2023-10-09T14:16:27;40.90;;;18.77;;
25327;SDS011;13279;51.300;12.394;2023-10-09T14:18:55;55.07;;;19.37;;
25327;SDS011;13279;51.300;12.394;2023-10-09T14:21:27;44.07;;;18.63;;
25327;SDS011;13279;51.300;12.394;2023-10-09T14:23:56;58.27;;;21.13;;
25327;SDS011;13279;51.300;12.394;2023-10-09T14:26:24;50.97;;;20.00;;
25327;SDS011;13279;51.300;12.394;2023-10-09T14:28:53;48.07;;;19.70;;
25327;SDS011;13279;51.300;12.394;2023-10-09T14:31:23;41.83;;;19.60;;
25327;SDS011;13279;51.300;12.394;2023-10-09T14:33:54;50.50;;;19.83;;
25327;SDS011;13279;51.300;12.394;2023-10-09T14:36:22;54.23;;;20.17;;
25327;SDS011;13279;51.300;12.394;2023-10-09T14:38:53;46.47;;;19.33;;
25327;SDS011;13279;51.300;12.394;2023-10-09T14:41:22;44.80;;;19.90;;
25327;SDS011;13279;51.300;12.394;2023-10-09T14:43:51;46.27;;;19.80;;
25327;SDS011;13279;51.300;12.394;2023-10-09T14:46:19;51.90;;;18.53;;
25327;SDS011;13279;51.300;12.394;2023-10-09T14:48:51;46.47;;;19.37;;
25327;SDS011;13279;51.300;12.394;2023-10-09T14:51:20;52.73;;;20.43;;
25327;SDS011;13279;51.300;12.394;2023-10-09T14:53:54;49.77;;;23.37;;
25327;SDS011;13279;51.300;12.394;2023-10-09T14:56:24;50.10;;;20.77;;
25327;SDS011;13279;51.300;12.394;2023-10-09T14:58:55;55.07;;;23.60;;
25327;SDS011;13279;51.300;12.394;2023-10-09T15:01:25;45.60;;;20.03;;
25327;SDS011;13279;51.300;12.394;2023-10-09T15:03:55;54.73;;;20.97;;
25327;SDS011;13279;51.300;12.394;2023-10-09T15:06:25;45.43;;;19.87;;
25327;SDS011;13279;51.300;12.394;2023-10-09T15:08:57;52.27;;;21.37;;
25327;SDS011;13279;51.300;12.394;2023-10-09T15:11:33;50.10;;;20.27;;
25327;SDS011;13279;51.300;12.394;2023-10-09T15:14:04;52.30;;;20.67;;
25327;SDS011;13279;51.300;12.394;2023-10-09T15:16:32;53.20;;;20.60;;
25327;SDS011;13279;51.300;12.394;2023-10-09T15:18:59;56.00;;;20.77;;
25327;SDS011;13279;51.300;12.394;2023-10-09T15:21:31;54.83;;;21.03;;
25327;SDS011;13279;51.300;12.394;2023-10-09T15:24:01;47.43;;;20.10;;
25327;SDS011;13279;51.300;12.394;2023-10-09T15:26:30;60.53;;;21.03;;
25327;SDS011;13279;51.300;12.394;2023-10-09T15:29:02;44.57;;;19.90;;
25327;SDS011;13279;51.300;12.394;2023-10-09T15:31:32;48.33;;;18.57;;
25327;SDS011;13279;51.300;12.394;2023-10-09T15:34:00;42.30;;;18.10;;
25327;SDS011;13279;51.300;12.394;2023-10-09T15:36:27;50.27;;;20.17;;
25327;SDS011;13279;51.300;12.394;2023-10-09T15:38:57;45.43;;;18.70;;
25327;SDS011;13279;51.300;12.394;2023-10-09T15:41:28;55.57;;;18.87;;
25327;SDS011;13279;51.300;12.394;2023-10-09T15:43:57;60.13;;;20.60;;
25327;SDS011;13279;51.300;12.394;2023-10-09T15:46:26;53.17;;;20.13;;
25327;SDS011;13279;51.300;12.394;2023-10-09T15:48:59;49.90;;;19.80;;
25327;SDS011;13279;51.300;12.394;2023-10-09T15:51:27;59.07;;;20.37;;
25327;SDS011;13279;51.300;12.394;2023-10-09T15:53:56;47.27;;;19.90;;
25327;SDS011;13279;51.300;12.394;2023-10-09T15:56:23;52.10;;;20.07;;
25327;SDS011;13279;51.300;12.394;2023-10-09T15:58:53;45.77;;;18.40;;
25327;SDS011;13279;51.300;12.394;2023-10-09T16:01:22;48.87;;;19.87;;
25327;SDS011;13279;51.300;12.394;2023-10-09T16:03:49;45.20;;;18.40;;
25327;SDS011;13279;51.300;12.394;2023-10-09T16:06:19;48.43;;;18.57;;
25327;SDS011;13279;51.300;12.394;2023-10-09T16:08:52;50.83;;;19.93;;
25327;SDS011;13279;51.300;12.394;2023-10-09T16:11:20;49.13;;;18.23;;
25327;SDS011;13279;51.300;12.394;2023-10-09T16:13:48;50.03;;;18.80;;
25327;SDS011;13279;51.300;12.394;2023-10-09T16:16:25;44.90;;;17.87;;
25327;SDS011;13279;51.300;12.394;2023-10-09T16:18:52;46.87;;;18.43;;
25327;SDS011;13279;51.300;12.394;2023-10-09T16:21:21;59.83;;;21.67;;
25327;SDS011;13279;51.300;12.394;2023-10-09T16:23:50;44.50;;;20.20;;
25327;SDS011;13279;51.300;12.394;2023-10-09T16:26:20;59.30;;;21.10;;
25327;SDS011;13279;51.300;12.394;2023-10-09T16:28:49;53.07;;;21.57;;
25327;SDS011;13279;51.300;12.394;2023-10-09T16:31:18;45.27;;;20.47;;
25327;SDS011;13279;51.300;12.394;2023-10-09T16:33:47;53.73;;;20.77;;
25327;SDS011;13279;51.300;12.394;2023-10-09T16:36:16;60.73;;;21.73;;
25327;SDS011;13279;51.300;12.394;2023-10-09T16:38:44;57.07;;;21.40;;
25327;SDS011;13279;51.300;12.394;2023-10-09T16:41:12;63.03;;;22.63;;
25327;SDS011;13279;51.300;12.394;2023-10-09T16:43:40;56.53;;;22.93;;
25327;SDS011;13279;51.300;12.394;2023-10-09T16:46:09;57.53;;;23.47;;
25327;SDS011;13279;51.300;12.394;2023-10-09T16:48:39;57.77;;;23.37;;
25327;SDS011;13279;51.300;12.394;2023-10-09T16:51:08;60.87;;;23.27;;
25327;SDS011;13279;51.300;12.394;2023-10-09T16:53:37;57.60;;;23.77;;
25327;SDS011;13279;51.300;12.394;2023-10-09T16:56:05;57.03;;;23.43;;
25327;SDS011;13279;51.300;12.394;2023-10-09T16:58:36;51.03;;;22.40;;
25327;SDS011;13279;51.300;12.394;2023-10-09T17:01:04;60.33;;;23.37;;
25327;SDS011;13279;51.300;12.394;2023-10-09T17:03:36;56.07;;;22.53;;
25327;SDS011;13279;51.300;12.394;2023-10-09T17:06:09;59.67;;;22.73;;
25327;SDS011;13279;51.300;12.394;2023-10-09T17:08:37;51.57;;;22.33;;
25327;SDS011;13279;51.300;12.394;2023-10-09T17:11:08;72.17;;;25.83;;
25327;SDS011;13279;51.300;12.394;2023-10-09T17:13:38;58.33;;;22.43;;
25327;SDS011;13279;51.300;12.394;2023-10-09T17:16:13;59.00;;;23.43;;
25327;SDS011;13279;51.300;12.394;2023-10-09T17:18:44;65.90;;;25.10;;
25327;SDS011;13279;51.300;12.394;2023-10-09T17:21:14;69.03;;;25.57;;
25327;SDS011;13279;51.300;12.394;2023-10-09T17:23:41;64.20;;;26.27;;
25327;SDS011;13279;51.300;12.394;2023-10-09T17:26:11;58.17;;;25.07;;
25327;SDS011;13279;51.300;12.394;2023-10-09T17:28:40;56.77;;;25.43;;
25327;SDS011;13279;51.300;12.394;2023-10-09T17:31:08;54.23;;;24.70;;
25327;SDS011;13279;51.300;12.394;2023-10-09T17:33:38;64.20;;;26.63;;
25327;SDS011;13279;51.300;12.394;2023-10-09T17:36:09;61.60;;;26.80;;
25327;SDS011;13279;51.300;12.394;2023-10-09T17:38:38;63.30;;;26.60;;
25327;SDS011;13279;51.300;12.394;2023-10-09T17:41:06;54.80;;;26.37;;
25327;SDS011;13279;51.300;12.394;2023-10-09T17:43:35;53.53;;;24.93;;
25327;SDS011;13279;51.300;12.394;2023-10-09T17:46:03;52.50;;;26.57;;
25327;SDS011;13279;51.300;12.394;2023-10-09T17:48:31;56.00;;;26.60;;
25327;SDS011;13279;51.300;12.394;2023-10-09T17:50:59;56.03;;;27.50;;
25327;SDS011;13279;51.300;12.394;2023-10-09T17:53:27;60.63;;;26.07;;